65.3°F
Current conditions from King Hill
Updated every 5 minutes
 
  Thursday August 21, 2014

Station Historical Data
Daily Summary for July 15, 2011 Units:  Both    English   Metric
« Previous Day
Next Day »
Daily Weekly Monthly Yearly Custom
  High: Low: Average:
Temperature: 81.3 °F /  27.4 °C 53.1 °F /  11.7 °C 66.8 °F /  19.3 °C
Dew Point: 65.1 °F /  18.4 °C 51.6 °F /  10.9 °C 57 °F /  13.9 °C
Humidity: 97% 40% 74%
Wind Speed: 6.0mph /  9.7km/h - 2.1mph /  3.4km/h
Wind Gust: 12.0mph /  19.3km/h - -
Wind- - WNW
Pressure: 30.07 in /  1018.2 hPa 29.99 in /  1015.5 hPa -
Precipitation: 0.00 in /  0 mm    
Historical Graphs
 
 
Tabular Data for July 15, 2011
Time Temperature Dew Point Pressure Wind Wind Speed Wind Gust Humidity Daily Rainfall
00:00 58.1 °F /  14.5 °C 55.2 °F /  12.9 °C 30.00in /  1015.8hPa Calm     90% 0.01in /  0.3mm
00:10 57.8 °F /  14.3 °C 54.9 °F /  12.7 °C 30.00in /  1015.8hPa Calm     90% 0.00in /  0mm
00:15 57.8 °F /  14.3 °C 54.9 °F /  12.7 °C 30.00in /  1015.8hPa Calm     90% 0.00in /  0mm
00:20 57.7 °F /  14.3 °C 54.8 °F /  12.7 °C 30.00in /  1015.8hPa Calm     90% 0.00in /  0mm
00:25 57.7 °F /  14.3 °C 55.1 °F /  12.8 °C 30.00in /  1015.8hPa Calm     91% 0.00in /  0mm
00:30 57.7 °F /  14.3 °C 54.8 °F /  12.7 °C 30.00in /  1015.8hPa Calm     90% 0.00in /  0mm
00:35 57.6 °F /  14.2 °C 55.0 °F /  12.8 °C 30.00in /  1015.8hPa Calm     91% 0.00in /  0mm
00:40 57.5 °F /  14.2 °C 54.9 °F /  12.7 °C 30.00in /  1015.8hPa Calm     91% 0.00in /  0mm
00:45 57.5 °F /  14.2 °C 54.9 °F /  12.7 °C 30.00in /  1015.8hPa Calm     91% 0.00in /  0mm
00:50 57.6 °F /  14.2 °C 55.0 °F /  12.8 °C 30.00in /  1015.8hPa Calm     91% 0.00in /  0mm
00:55 57.6 °F /  14.2 °C 55.0 °F /  12.8 °C 30.00in /  1015.8hPa Calm     91% 0.00in /  0mm
01:00 57.6 °F /  14.2 °C 55.0 °F /  12.8 °C 30.00in /  1015.8hPa Calm     91% 0.00in /  0mm
01:05 57.5 °F /  14.2 °C 54.9 °F /  12.7 °C 30.00in /  1015.8hPa Calm     91% 0.00in /  0mm
01:10 57.3 °F /  14.1 °C 54.7 °F /  12.6 °C 30.00in /  1015.8hPa Calm     91% 0.00in /  0mm
01:15 57.1 °F /  13.9 °C 54.5 °F /  12.5 °C 30.00in /  1015.8hPa Calm     91% 0.00in /  0mm
01:20 56.9 °F /  13.8 °C 54.3 °F /  12.4 °C 30.00in /  1015.8hPa Calm     91% 0.00in /  0mm
01:25 56.6 °F /  13.7 °C 54.0 °F /  12.2 °C 30.00in /  1015.8hPa Calm     91% 0.00in /  0mm
01:30 56.4 °F /  13.6 °C 53.8 °F /  12.1 °C 30.00in /  1015.8hPa Calm     91% 0.00in /  0mm
01:35 56.2 °F /  13.4 °C 53.6 °F /  12 °C 30.00in /  1015.8hPa Calm     91% 0.00in /  0mm
01:40 56.1 °F /  13.4 °C 53.8 °F /  12.1 °C 30.00in /  1015.8hPa Calm     92% 0.00in /  0mm
01:45 56.0 °F /  13.3 °C 53.7 °F /  12.1 °C 30.00in /  1015.8hPa Calm     92% 0.00in /  0mm
01:50 55.9 °F /  13.3 °C 53.6 °F /  12 °C 30.00in /  1015.8hPa Calm     92% 0.00in /  0mm
01:55 55.8 °F /  13.2 °C 53.5 °F /  11.9 °C 29.99in /  1015.5hPa Calm     92% 0.00in /  0mm
02:00 55.9 °F /  13.3 °C 53.9 °F /  12.2 °C 29.99in /  1015.5hPa Calm     93% 0.00in /  0mm
02:05 56.0 °F /  13.3 °C 54.0 °F /  12.2 °C 29.99in /  1015.5hPa Calm     93% 0.00in /  0mm
02:10 55.9 °F /  13.3 °C 53.9 °F /  12.2 °C 29.99in /  1015.5hPa Calm     93% 0.00in /  0mm
02:15 56.0 °F /  13.3 °C 54.0 °F /  12.2 °C 29.99in /  1015.5hPa Calm     93% 0.00in /  0mm
02:25 56.1 °F /  13.4 °C 54.4 °F /  12.4 °C 29.99in /  1015.5hPa Calm     94% 0.00in /  0mm
02:30 56.2 °F /  13.4 °C 54.5 °F /  12.5 °C 30.00in /  1015.8hPa Calm     94% 0.00in /  0mm
02:35 56.2 °F /  13.4 °C 54.5 °F /  12.5 °C 30.00in /  1015.8hPa Calm     94% 0.00in /  0mm
02:40 56.2 °F /  13.4 °C 54.5 °F /  12.5 °C 30.00in /  1015.8hPa Calm     94% 0.00in /  0mm
02:45 56.1 °F /  13.4 °C 54.4 °F /  12.4 °C 30.00in /  1015.8hPa Calm     94% 0.00in /  0mm
02:50 55.9 °F /  13.3 °C 54.2 °F /  12.3 °C 30.00in /  1015.8hPa Calm     94% 0.00in /  0mm
02:55 55.8 °F /  13.2 °C 54.1 °F /  12.3 °C 30.00in /  1015.8hPa Calm     94% 0.00in /  0mm
03:00 55.6 °F /  13.1 °C 53.9 °F /  12.2 °C 30.00in /  1015.8hPa Calm     94% 0.00in /  0mm
03:05 55.4 °F /  13 °C 53.7 °F /  12.1 °C 30.00in /  1015.8hPa Calm     94% 0.00in /  0mm
03:10 55.1 °F /  12.8 °C 53.4 °F /  11.9 °C 30.00in /  1015.8hPa Calm     94% 0.00in /  0mm
03:15 55.0 °F /  12.8 °C 53.3 °F /  11.8 °C 30.00in /  1015.8hPa Calm     94% 0.00in /  0mm
03:20 54.8 °F /  12.7 °C 53.1 °F /  11.7 °C 30.00in /  1015.8hPa Calm     94% 0.00in /  0mm
03:25 54.8 °F /  12.7 °C 53.1 °F /  11.7 °C 30.00in /  1015.8hPa Calm     94% 0.00in /  0mm
03:30 54.7 °F /  12.6 °C 53.0 °F /  11.7 °C 30.00in /  1015.8hPa Calm     94% 0.00in /  0mm
03:35 54.6 °F /  12.6 °C 52.9 °F /  11.6 °C 30.00in /  1015.8hPa Calm     94% 0.00in /  0mm
03:45 54.4 °F /  12.4 °C 53.0 °F /  11.7 °C 30.00in /  1015.8hPa Calm   2.0mph /  3.2km/h 95% 0.00in /  0mm
03:50 54.4 °F /  12.4 °C 53.0 °F /  11.7 °C 30.00in /  1015.8hPa Calm   2.0mph /  3.2km/h 95% 0.00in /  0mm
03:55 54.4 °F /  12.4 °C 53.0 °F /  11.7 °C 30.00in /  1015.8hPa Calm     95% 0.00in /  0mm
04:00 54.3 °F /  12.4 °C 52.9 °F /  11.6 °C 30.00in /  1015.8hPa Calm     95% 0.00in /  0mm
04:05 54.4 °F /  12.4 °C 53.0 °F /  11.7 °C 30.00in /  1015.8hPa Calm     95% 0.00in /  0mm
04:10 54.4 °F /  12.4 °C 53.0 °F /  11.7 °C 30.00in /  1015.8hPa Calm     95% 0.00in /  0mm
04:15 54.3 °F /  12.4 °C 52.9 °F /  11.6 °C 30.01in /  1016.1hPa Calm     95% 0.00in /  0mm
04:20 54.2 °F /  12.3 °C 52.8 °F /  11.6 °C 30.00in /  1015.8hPa Calm     95% 0.00in /  0mm
04:25 54.1 °F /  12.3 °C 52.7 °F /  11.5 °C 30.00in /  1015.8hPa Calm     95% 0.00in /  0mm
04:30 54.0 °F /  12.2 °C 52.6 °F /  11.4 °C 30.01in /  1016.1hPa Calm     95% 0.00in /  0mm
04:35 53.9 °F /  12.2 °C 52.5 °F /  11.4 °C 30.01in /  1016.1hPa Calm     95% 0.00in /  0mm
04:40 53.8 °F /  12.1 °C 52.4 °F /  11.3 °C 30.01in /  1016.1hPa Calm     95% 0.00in /  0mm
04:45 53.7 °F /  12.1 °C 52.3 °F /  11.3 °C 30.01in /  1016.1hPa Calm     95% 0.00in /  0mm
04:50 53.6 °F /  12 °C 52.2 °F /  11.2 °C 30.01in /  1016.1hPa Calm     95% 0.00in /  0mm
04:55 53.6 °F /  12 °C 52.2 °F /  11.2 °C 30.01in /  1016.1hPa Calm     95% 0.00in /  0mm
05:00 53.6 °F /  12 °C 52.2 °F /  11.2 °C 30.01in /  1016.1hPa Calm     95% 0.00in /  0mm
05:05 53.5 °F /  11.9 °C 52.1 °F /  11.2 °C 30.01in /  1016.1hPa Calm     95% 0.00in /  0mm
05:10 53.3 °F /  11.8 °C 51.9 °F /  11.1 °C 30.02in /  1016.5hPa Calm     95% 0.00in /  0mm
05:15 53.3 °F /  11.8 °C 51.9 °F /  11.1 °C 30.02in /  1016.5hPa Calm     95% 0.00in /  0mm
05:20 53.3 °F /  11.8 °C 51.9 °F /  11.1 °C 30.02in /  1016.5hPa Calm     95% 0.00in /  0mm
05:25 53.2 °F /  11.8 °C 51.8 °F /  11 °C 30.02in /  1016.5hPa Calm     95% 0.00in /  0mm
05:30 53.2 °F /  11.8 °C 51.8 °F /  11 °C 30.02in /  1016.5hPa Calm     95% 0.00in /  0mm
05:35 53.1 °F /  11.7 °C 51.7 °F /  10.9 °C 30.02in /  1016.5hPa Calm     95% 0.00in /  0mm
05:40 53.4 °F /  11.9 °C 52.0 °F /  11.1 °C 30.02in /  1016.5hPa Calm     95% 0.00in /  0mm
05:45 53.5 °F /  11.9 °C 52.1 °F /  11.2 °C 30.02in /  1016.5hPa Calm     95% 0.00in /  0mm
05:50 53.5 °F /  11.9 °C 52.1 °F /  11.2 °C 30.02in /  1016.5hPa Calm     95% 0.00in /  0mm
05:55 53.5 °F /  11.9 °C 52.1 °F /  11.2 °C 30.02in /  1016.5hPa Calm     95% 0.00in /  0mm
06:00 53.4 °F /  11.9 °C 52.0 °F /  11.1 °C 30.02in /  1016.5hPa Calm     95% 0.00in /  0mm
06:05 53.4 °F /  11.9 °C 52.0 °F /  11.1 °C 30.03in /  1016.8hPa Calm     95% 0.00in /  0mm
06:10 53.4 °F /  11.9 °C 52.0 °F /  11.1 °C 30.03in /  1016.8hPa Calm     95% 0.00in /  0mm
06:15 53.6 °F /  12 °C 52.5 °F /  11.4 °C 30.03in /  1016.8hPa Calm     96% 0.00in /  0mm
06:20 53.8 °F /  12.1 °C 52.4 °F /  11.3 °C 30.03in /  1016.8hPa Calm     95% 0.00in /  0mm
06:25 54.3 °F /  12.4 °C 53.2 °F /  11.8 °C 30.03in /  1016.8hPa Calm   1.0mph /  1.6km/h 96% 0.00in /  0mm
06:30 55.1 °F /  12.8 °C 54.0 °F /  12.2 °C 30.03in /  1016.8hPa Calm   1.0mph /  1.6km/h 96% 0.00in /  0mm
06:35 55.5 °F /  13.1 °C 54.4 °F /  12.4 °C 30.04in /  1017.2hPa Calm     96% 0.00in /  0mm
06:40 55.6 °F /  13.1 °C 54.5 °F /  12.5 °C 30.04in /  1017.2hPa Calm     96% 0.00in /  0mm
06:45 56.2 °F /  13.4 °C 55.1 °F /  12.8 °C 30.04in /  1017.2hPa Calm     96% 0.00in /  0mm
06:50 56.8 °F /  13.8 °C 55.7 °F /  13.2 °C 30.04in /  1017.2hPa Calm     96% 0.00in /  0mm
06:55 56.9 °F /  13.8 °C 55.8 °F /  13.2 °C 30.04in /  1017.2hPa Calm     96% 0.00in /  0mm
07:00 57.1 °F /  13.9 °C 56.0 °F /  13.3 °C 30.04in /  1017.2hPa Calm     96% 0.00in /  0mm
07:05 57.3 °F /  14.1 °C 56.2 °F /  13.4 °C 30.05in /  1017.5hPa Calm   1.0mph /  1.6km/h 96% 0.00in /  0mm
07:10 57.8 °F /  14.3 °C 56.7 °F /  13.7 °C 30.05in /  1017.5hPa Calm   1.0mph /  1.6km/h 96% 0.00in /  0mm
07:15 58.3 °F /  14.6 °C 57.2 °F /  14 °C 30.05in /  1017.5hPa Calm   1.0mph /  1.6km/h 96% 0.00in /  0mm
07:20 58.8 °F /  14.9 °C 57.7 °F /  14.3 °C 30.05in /  1017.5hPa Calm     96% 0.00in /  0mm
07:25 59.0 °F /  15 °C 57.9 °F /  14.4 °C 30.06in /  1017.8hPa Calm     96% 0.00in /  0mm
07:30 59.2 °F /  15.1 °C 58.1 °F /  14.5 °C 30.06in /  1017.8hPa Calm   1.0mph /  1.6km/h 96% 0.00in /  0mm
07:35 59.6 °F /  15.3 °C 58.5 °F /  14.7 °C 30.06in /  1017.8hPa Calm   1.0mph /  1.6km/h 96% 0.00in /  0mm
07:40 59.9 °F /  15.5 °C 58.8 °F /  14.9 °C 30.06in /  1017.8hPa Calm     96% 0.00in /  0mm
07:45 60.2 °F /  15.7 °C 59.1 °F /  15.1 °C 30.06in /  1017.8hPa Calm     96% 0.00in /  0mm
07:50 60.4 °F /  15.8 °C 59.3 °F /  15.2 °C 30.06in /  1017.8hPa Calm   1.0mph /  1.6km/h 96% 0.00in /  0mm
07:55 61.1 °F /  16.2 °C 60.0 °F /  15.6 °C 30.06in /  1017.8hPa Calm   1.0mph /  1.6km/h 96% 0.00in /  0mm
08:00 61.7 °F /  16.5 °C 60.5 °F /  15.8 °C 30.07in /  1018.2hPa Calm     96% 0.00in /  0mm
08:05 62.6 °F /  17 °C 61.7 °F /  16.5 °C 30.06in /  1017.8hPa Calm     97% 0.00in /  0mm
08:10 63.8 °F /  17.7 °C 62.9 °F /  17.2 °C 30.06in /  1017.8hPa Calm     97% 0.00in /  0mm
08:15 65.1 °F /  18.4 °C 64.2 °F /  17.9 °C 30.06in /  1017.8hPa Calm     97% 0.00in /  0mm
08:20 65.2 °F /  18.4 °C 64.0 °F /  17.8 °C 30.06in /  1017.8hPa Calm   1.0mph /  1.6km/h 96% 0.00in /  0mm
08:25 65.7 °F /  18.7 °C 63.9 °F /  17.7 °C 30.06in /  1017.8hPa NNW 1.0mph /  1.6km/h 3.0mph /  4.8km/h 94% 0.00in /  0mm
08:30 66.7 °F /  19.3 °C 64.3 °F /  17.9 °C 30.07in /  1018.2hPa Calm   3.0mph /  4.8km/h 92% 0.00in /  0mm
08:35 68.0 °F /  20 °C 64.6 °F /  18.1 °C 30.06in /  1017.8hPa Calm     89% 0.00in /  0mm
08:40 68.7 °F /  20.4 °C 63.3 °F /  17.4 °C 30.06in /  1017.8hPa Calm     83% 0.00in /  0mm
08:45 69.8 °F /  21 °C 65.1 °F /  18.4 °C 30.06in /  1017.8hPa Calm   3.0mph /  4.8km/h 85% 0.00in /  0mm
08:50 70.6 °F /  21.4 °C 63.4 °F /  17.4 °C 30.06in /  1017.8hPa Calm   3.0mph /  4.8km/h 78% 0.00in /  0mm
08:55 71.3 °F /  21.8 °C 62.2 °F /  16.8 °C 30.06in /  1017.8hPa Calm   1.0mph /  1.6km/h 73% 0.00in /  0mm
09:05 72.0 °F /  22.2 °C 62.5 °F /  16.9 °C 30.06in /  1017.8hPa Calm   2.0mph /  3.2km/h 72% 0.00in /  0mm
09:10 72.6 °F /  22.6 °C 61.0 °F /  16.1 °C 30.06in /  1017.8hPa Calm   1.0mph /  1.6km/h 67% 0.00in /  0mm
09:15 73.2 °F /  22.9 °C 64.0 °F /  17.8 °C 30.06in /  1017.8hPa Calm   1.0mph /  1.6km/h 73% 0.00in /  0mm
09:25 72.9 °F /  22.7 °C 59.6 °F /  15.3 °C 30.06in /  1017.8hPa Calm   3.0mph /  4.8km/h 63% 0.00in /  0mm
09:30 72.8 °F /  22.7 °C 59.9 °F /  15.5 °C 30.06in /  1017.8hPa Calm   1.0mph /  1.6km/h 64% 0.00in /  0mm
09:35 72.4 °F /  22.4 °C 60.0 °F /  15.6 °C 30.06in /  1017.8hPa Calm   1.0mph /  1.6km/h 65% 0.00in /  0mm
09:40 72.5 °F /  22.5 °C 61.4 °F /  16.3 °C 30.06in /  1017.8hPa Calm   1.0mph /  1.6km/h 68% 0.00in /  0mm
09:45 72.9 °F /  22.7 °C 59.6 °F /  15.3 °C 30.06in /  1017.8hPa Calm   1.0mph /  1.6km/h 63% 0.00in /  0mm
09:50 73.2 °F /  22.9 °C 59.9 °F /  15.5 °C 30.06in /  1017.8hPa Calm   1.0mph /  1.6km/h 63% 0.00in /  0mm
09:55 73.4 °F /  23 °C 61.4 °F /  16.3 °C 30.06in /  1017.8hPa Calm   1.0mph /  1.6km/h 66% 0.00in /  0mm
10:00 73.8 °F /  23.2 °C 60.4 °F /  15.8 °C 30.06in /  1017.8hPa NE 1.0mph /  1.6km/h 4.0mph /  6.4km/h 63% 0.00in /  0mm
10:05 73.8 °F /  23.2 °C 62.2 °F /  16.8 °C 30.06in /  1017.8hPa Calm   4.0mph /  6.4km/h 67% 0.00in /  0mm
10:10 74.1 °F /  23.4 °C 64.1 °F /  17.8 °C 30.06in /  1017.8hPa Calm   2.0mph /  3.2km/h 71% 0.00in /  0mm
10:15 74.4 °F /  23.6 °C 63.6 °F /  17.6 °C 30.06in /  1017.8hPa Calm   1.0mph /  1.6km/h 69% 0.00in /  0mm
10:20 74.4 °F /  23.6 °C 60.5 °F /  15.8 °C 30.06in /  1017.8hPa Calm   1.0mph /  1.6km/h 62% 0.00in /  0mm
10:25 74.2 °F /  23.4 °C 63.4 °F /  17.4 °C 30.06in /  1017.8hPa Calm   1.0mph /  1.6km/h 69% 0.00in /  0mm
10:30 74.7 °F /  23.7 °C 61.7 °F /  16.5 °C 30.06in /  1017.8hPa Calm   1.0mph /  1.6km/h 64% 0.00in /  0mm
10:35 74.9 °F /  23.8 °C 60.6 °F /  15.9 °C 30.06in /  1017.8hPa North 1.0mph /  1.6km/h 4.0mph /  6.4km/h 61% 0.00in /  0mm
10:40 74.6 °F /  23.7 °C 60.3 °F /  15.7 °C 30.06in /  1017.8hPa Calm   4.0mph /  6.4km/h 61% 0.00in /  0mm
10:45 74.7 °F /  23.7 °C 63.9 °F /  17.7 °C 30.06in /  1017.8hPa Calm   1.0mph /  1.6km/h 69% 0.00in /  0mm
10:50 75.2 °F /  24 °C 61.8 °F /  16.6 °C 30.06in /  1017.8hPa North 1.0mph /  1.6km/h 4.0mph /  6.4km/h 63% 0.00in /  0mm
10:55 75.5 °F /  24.2 °C 60.7 °F /  15.9 °C 30.05in /  1017.5hPa Calm   4.0mph /  6.4km/h 60% 0.00in /  0mm
11:00 75.7 °F /  24.3 °C 62.7 °F /  17.1 °C 30.06in /  1017.8hPa NW 1.0mph /  1.6km/h 4.0mph /  6.4km/h 64% 0.00in /  0mm
11:05 75.6 °F /  24.2 °C 62.6 °F /  17 °C 30.06in /  1017.8hPa WNW 2.0mph /  3.2km/h 6.0mph /  9.7km/h 64% 0.00in /  0mm
11:10 75.7 °F /  24.3 °C 62.7 °F /  17.1 °C 30.06in /  1017.8hPa Calm   6.0mph /  9.7km/h 64% 0.00in /  0mm
11:15 76.1 °F /  24.5 °C 62.2 °F /  16.8 °C 30.05in /  1017.5hPa Calm   4.0mph /  6.4km/h 62% 0.00in /  0mm
11:20 76.5 °F /  24.7 °C 62.5 °F /  16.9 °C 30.05in /  1017.5hPa Calm   1.0mph /  1.6km/h 62% 0.00in /  0mm
11:25 76.6 °F /  24.8 °C 59.2 °F /  15.1 °C 30.05in /  1017.5hPa Calm   4.0mph /  6.4km/h 55% 0.00in /  0mm
11:30 76.4 °F /  24.7 °C 59.6 °F /  15.3 °C 30.05in /  1017.5hPa Calm   8.0mph /  12.9km/h 56% 0.00in /  0mm
11:35 76.3 °F /  24.6 °C 61.4 °F /  16.3 °C 30.05in /  1017.5hPa NW 4.0mph /  6.4km/h 8.0mph /  12.9km/h 60% 0.00in /  0mm
11:40 76.3 °F /  24.6 °C 61.4 °F /  16.3 °C 30.05in /  1017.5hPa Calm   6.0mph /  9.7km/h 60% 0.00in /  0mm
11:45 76.7 °F /  24.8 °C 61.8 °F /  16.6 °C 30.05in /  1017.5hPa Calm   6.0mph /  9.7km/h 60% 0.00in /  0mm
11:50 76.9 °F /  24.9 °C 62.4 °F /  16.9 °C 30.05in /  1017.5hPa NW 1.0mph /  1.6km/h 6.0mph /  9.7km/h 61% 0.00in /  0mm
11:55 76.9 °F /  24.9 °C 61.0 °F /  16.1 °C 30.05in /  1017.5hPa Calm   6.0mph /  9.7km/h 58% 0.00in /  0mm
12:00 77.2 °F /  25.1 °C 59.8 °F /  15.4 °C 30.05in /  1017.5hPa NW 1.0mph /  1.6km/h 6.0mph /  9.7km/h 55% 0.00in /  0mm
12:05 77.3 °F /  25.2 °C 59.9 °F /  15.5 °C 30.05in /  1017.5hPa Calm   6.0mph /  9.7km/h 55% 0.00in /  0mm
12:10 77.5 °F /  25.3 °C 61.1 °F /  16.2 °C 30.05in /  1017.5hPa Calm   5.0mph /  8km/h 57% 0.00in /  0mm
12:15 77.8 °F /  25.4 °C 59.3 °F /  15.2 °C 30.04in /  1017.2hPa NW 4.0mph /  6.4km/h 6.0mph /  9.7km/h 53% 0.00in /  0mm
12:20 77.4 °F /  25.2 °C 57.3 °F /  14.1 °C 30.04in /  1017.2hPa WNW 1.0mph /  1.6km/h 8.0mph /  12.9km/h 50% 0.00in /  0mm
12:30 77.4 °F /  25.2 °C 61.0 °F /  16.1 °C 30.04in /  1017.2hPa NW 2.0mph /  3.2km/h 8.0mph /  12.9km/h 57% 0.00in /  0mm
12:35 77.7 °F /  25.4 °C 62.3 °F /  16.8 °C 30.04in /  1017.2hPa Calm   8.0mph /  12.9km/h 59% 0.00in /  0mm
12:40 78.0 °F /  25.6 °C 58.4 °F /  14.7 °C 30.04in /  1017.2hPa NW 2.0mph /  3.2km/h 9.0mph /  14.5km/h 51% 0.00in /  0mm
12:45 78.2 °F /  25.7 °C 60.2 °F /  15.7 °C 30.04in /  1017.2hPa NW 2.0mph /  3.2km/h 9.0mph /  14.5km/h 54% 0.00in /  0mm
12:50 78.0 °F /  25.6 °C 58.4 °F /  14.7 °C 30.03in /  1016.8hPa NW 2.0mph /  3.2km/h 10.0mph /  16.1km/h 51% 0.00in /  0mm
12:55 77.9 °F /  25.5 °C 56.7 °F /  13.7 °C 30.03in /  1016.8hPa West 1.0mph /  1.6km/h 10.0mph /  16.1km/h 48% 0.00in /  0mm
13:00 77.8 °F /  25.4 °C 60.4 °F /  15.8 °C 30.03in /  1016.8hPa WNW 4.0mph /  6.4km/h 9.0mph /  14.5km/h 55% 0.00in /  0mm
13:05 78.0 °F /  25.6 °C 60.5 °F /  15.8 °C 30.03in /  1016.8hPa NW 5.0mph /  8km/h 10.0mph /  16.1km/h 55% 0.00in /  0mm
13:10 78.4 °F /  25.8 °C 60.9 °F /  16.1 °C 30.03in /  1016.8hPa NW 1.0mph /  1.6km/h 10.0mph /  16.1km/h 55% 0.00in /  0mm
13:15 78.7 °F /  25.9 °C 56.8 °F /  13.8 °C 30.03in /  1016.8hPa NW 2.0mph /  3.2km/h 8.0mph /  12.9km/h 47% 0.00in /  0mm
13:20 78.5 °F /  25.8 °C 59.4 °F /  15.2 °C 30.03in /  1016.8hPa NW 5.0mph /  8km/h 10.0mph /  16.1km/h 52% 0.00in /  0mm
13:25 78.5 °F /  25.8 °C 61.0 °F /  16.1 °C 30.03in /  1016.8hPa NW 2.0mph /  3.2km/h 10.0mph /  16.1km/h 55% 0.00in /  0mm
13:30 78.7 °F /  25.9 °C 60.2 °F /  15.7 °C 30.02in /  1016.5hPa NW 5.0mph /  8km/h 9.0mph /  14.5km/h 53% 0.00in /  0mm
13:40 78.5 °F /  25.8 °C 57.8 °F /  14.3 °C 30.03in /  1016.8hPa WNW 4.0mph /  6.4km/h 12.0mph /  19.3km/h 49% 0.00in /  0mm
13:45 78.2 °F /  25.7 °C 58.1 °F /  14.5 °C 30.02in /  1016.5hPa NW 3.0mph /  4.8km/h 10.0mph /  16.1km/h 50% 0.00in /  0mm
13:50 78.7 °F /  25.9 °C 57.4 °F /  14.1 °C 30.03in /  1016.8hPa Calm   10.0mph /  16.1km/h 48% 0.00in /  0mm
13:55 79.2 °F /  26.2 °C 60.6 °F /  15.9 °C 30.03in /  1016.8hPa NW 1.0mph /  1.6km/h 6.0mph /  9.7km/h 53% 0.00in /  0mm
14:00 79.3 °F /  26.3 °C 59.1 °F /  15.1 °C 30.03in /  1016.8hPa NW 3.0mph /  4.8km/h 8.0mph /  12.9km/h 50% 0.00in /  0mm
14:05 79.4 °F /  26.3 °C 59.2 °F /  15.1 °C 30.02in /  1016.5hPa NNE 1.0mph /  1.6km/h 8.0mph /  12.9km/h 50% 0.00in /  0mm
14:10 79.5 °F /  26.4 °C 61.9 °F /  16.6 °C 30.02in /  1016.5hPa Calm   4.0mph /  6.4km/h 55% 0.00in /  0mm
14:15 79.8 °F /  26.6 °C 58.4 °F /  14.7 °C 30.02in /  1016.5hPa NW 6.0mph /  9.7km/h 11.0mph /  17.7km/h 48% 0.00in /  0mm
14:20 79.8 °F /  26.6 °C 57.2 °F /  14 °C 30.02in /  1016.5hPa NW 2.0mph /  3.2km/h 11.0mph /  17.7km/h 46% 0.00in /  0mm
14:25 79.8 °F /  26.6 °C 62.7 °F /  17.1 °C 30.02in /  1016.5hPa NW 1.0mph /  1.6km/h 9.0mph /  14.5km/h 56% 0.00in /  0mm
14:30 79.9 °F /  26.6 °C 58.5 °F /  14.7 °C 30.02in /  1016.5hPa NW 1.0mph /  1.6km/h 9.0mph /  14.5km/h 48% 0.00in /  0mm
14:35 80.2 °F /  26.8 °C 64.6 °F /  18.1 °C 30.01in /  1016.1hPa WNW 1.0mph /  1.6km/h 9.0mph /  14.5km/h 59% 0.00in /  0mm
14:40 80.3 °F /  26.8 °C 58.8 °F /  14.9 °C 30.01in /  1016.1hPa WNW 1.0mph /  1.6km/h 9.0mph /  14.5km/h 48% 0.00in /  0mm
14:45 80.2 °F /  26.8 °C 58.2 °F /  14.6 °C 30.02in /  1016.5hPa NW 3.0mph /  4.8km/h 9.0mph /  14.5km/h 47% 0.00in /  0mm
14:50 80.4 °F /  26.9 °C 59.5 °F /  15.3 °C 30.02in /  1016.5hPa Calm   9.0mph /  14.5km/h 49% 0.00in /  0mm
14:55 80.4 °F /  26.9 °C 57.8 °F /  14.3 °C 30.02in /  1016.5hPa Calm   4.0mph /  6.4km/h 46% 0.00in /  0mm
15:00 80.6 °F /  27 °C 57.9 °F /  14.4 °C 30.02in /  1016.5hPa Calm   4.0mph /  6.4km/h 46% 0.00in /  0mm
15:05 80.6 °F /  27 °C 59.7 °F /  15.4 °C 30.01in /  1016.1hPa Calm   6.0mph /  9.7km/h 49% 0.00in /  0mm
15:10 80.4 °F /  26.9 °C 58.9 °F /  14.9 °C 30.01in /  1016.1hPa Calm   7.0mph /  11.3km/h 48% 0.00in /  0mm
15:15 79.9 °F /  26.6 °C 59.6 °F /  15.3 °C 30.02in /  1016.5hPa Calm   7.0mph /  11.3km/h 50% 0.00in /  0mm
15:20 80.1 °F /  26.7 °C 60.9 °F /  16.1 °C 30.02in /  1016.5hPa NNE 1.0mph /  1.6km/h 7.0mph /  11.3km/h 52% 0.00in /  0mm
15:25 79.5 °F /  26.4 °C 58.7 °F /  14.8 °C 30.02in /  1016.5hPa NNE 1.0mph /  1.6km/h 7.0mph /  11.3km/h 49% 0.00in /  0mm
15:30 79.4 °F /  26.3 °C 56.8 °F /  13.8 °C 30.02in /  1016.5hPa NNE 1.0mph /  1.6km/h 7.0mph /  11.3km/h 46% 0.00in /  0mm
15:35 79.8 °F /  26.6 °C 56.6 °F /  13.7 °C 30.02in /  1016.5hPa Calm   5.0mph /  8km/h 45% 0.00in /  0mm
15:45 80.8 °F /  27.1 °C 58.7 °F /  14.8 °C 30.01in /  1016.1hPa Calm   4.0mph /  6.4km/h 47% 0.00in /  0mm
15:50 81.0 °F /  27.2 °C 58.9 °F /  14.9 °C 30.01in /  1016.1hPa Calm   4.0mph /  6.4km/h 47% 0.00in /  0mm
15:55 81.0 °F /  27.2 °C 61.2 °F /  16.2 °C 30.01in /  1016.1hPa Calm   2.0mph /  3.2km/h 51% 0.00in /  0mm
16:00 81.3 °F /  27.4 °C 59.2 °F /  15.1 °C 30.01in /  1016.1hPa NW 3.0mph /  4.8km/h 6.0mph /  9.7km/h 47% 0.00in /  0mm
16:05 81.3 °F /  27.4 °C 58.6 °F /  14.8 °C 30.01in /  1016.1hPa Calm   6.0mph /  9.7km/h 46% 0.00in /  0mm
16:10 81.1 °F /  27.3 °C 58.4 °F /  14.7 °C 30.01in /  1016.1hPa NW 2.0mph /  3.2km/h 8.0mph /  12.9km/h 46% 0.00in /  0mm
16:15 80.6 °F /  27 °C 54.1 °F /  12.3 °C 30.01in /  1016.1hPa Calm   8.0mph /  12.9km/h 40% 0.00in /  0mm
16:20 80.5 °F /  26.9 °C 57.8 °F /  14.3 °C 30.01in /  1016.1hPa NW 1.0mph /  1.6km/h 6.0mph /  9.7km/h 46% 0.00in /  0mm
16:25 80.5 °F /  26.9 °C 57.8 °F /  14.3 °C 30.01in /  1016.1hPa NW 2.0mph /  3.2km/h 7.0mph /  11.3km/h 46% 0.00in /  0mm
16:30 80.6 °F /  27 °C 55.4 °F /  13 °C 30.01in /  1016.1hPa Calm   7.0mph /  11.3km/h 42% 0.00in /  0mm
16:35 80.9 °F /  27.2 °C 58.2 °F /  14.6 °C 30.01in /  1016.1hPa Calm   7.0mph /  11.3km/h 46% 0.00in /  0mm
16:40 80.8 °F /  27.1 °C 56.9 °F /  13.8 °C 30.01in /  1016.1hPa NW 1.0mph /  1.6km/h 6.0mph /  9.7km/h 44% 0.00in /  0mm
16:45 81.2 °F /  27.3 °C 56.0 °F /  13.3 °C 30.01in /  1016.1hPa Calm   3.0mph /  4.8km/h 42% 0.00in /  0mm
16:50 81.2 °F /  27.3 °C 58.5 °F /  14.7 °C 30.01in /  1016.1hPa Calm   3.0mph /  4.8km/h 46% 0.00in /  0mm
16:55 81.0 °F /  27.2 °C 60.6 °F /  15.9 °C 30.01in /  1016.1hPa Calm   1.0mph /  1.6km/h 50% 0.00in /  0mm
17:00 81.0 °F /  27.2 °C 59.5 °F /  15.3 °C 30.01in /  1016.1hPa WNW 1.0mph /  1.6km/h 8.0mph /  12.9km/h 48% 0.00in /  0mm
17:05 80.6 °F /  27 °C 56.7 °F /  13.7 °C 30.01in /  1016.1hPa NW 1.0mph /  1.6km/h 8.0mph /  12.9km/h 44% 0.00in /  0mm
17:10 80.6 °F /  27 °C 57.9 °F /  14.4 °C 30.01in /  1016.1hPa Calm   6.0mph /  9.7km/h 46% 0.00in /  0mm
17:15 80.7 °F /  27.1 °C 58.0 °F /  14.4 °C 30.01in /  1016.1hPa Calm   5.0mph /  8km/h 46% 0.00in /  0mm
17:20 80.3 °F /  26.8 °C 57.7 °F /  14.3 °C 30.01in /  1016.1hPa Calm   5.0mph /  8km/h 46% 0.00in /  0mm
17:25 80.6 °F /  27 °C 57.3 °F /  14.1 °C 30.01in /  1016.1hPa Calm   2.0mph /  3.2km/h 45% 0.00in /  0mm
17:30 80.8 °F /  27.1 °C 59.9 °F /  15.5 °C 30.01in /  1016.1hPa Calm   2.0mph /  3.2km/h 49% 0.00in /  0mm
17:35 80.9 °F /  27.2 °C 58.8 °F /  14.9 °C 30.01in /  1016.1hPa Calm   1.0mph /  1.6km/h 47% 0.00in /  0mm
17:40 80.5 °F /  26.9 °C 56.6 °F /  13.7 °C 30.01in /  1016.1hPa WNW 4.0mph /  6.4km/h 7.0mph /  11.3km/h 44% 0.00in /  0mm
17:45 80.1 °F /  26.7 °C 56.3 °F /  13.5 °C 30.01in /  1016.1hPa Calm   7.0mph /  11.3km/h 44% 0.00in /  0mm
17:55 80.3 °F /  26.8 °C 59.4 °F /  15.2 °C 30.01in /  1016.1hPa Calm   1.0mph /  1.6km/h 49% 0.00in /  0mm
18:00 80.7 °F /  27.1 °C 60.9 °F /  16.1 °C 30.01in /  1016.1hPa Calm   1.0mph /  1.6km/h 51% 0.00in /  0mm
18:05 80.4 °F /  26.9 °C 55.9 °F /  13.3 °C 30.01in /  1016.1hPa North 1.0mph /  1.6km/h 5.0mph /  8km/h 43% 0.00in /  0mm
18:10 80.0 °F /  26.7 °C 54.9 °F /  12.7 °C 30.01in /  1016.1hPa Calm   5.0mph /  8km/h 42% 0.00in /  0mm
18:15 79.8 °F /  26.6 °C 57.2 °F /  14 °C 30.01in /  1016.1hPa Calm   1.0mph /  1.6km/h 46% 0.00in /  0mm
18:25 79.7 °F /  26.5 °C 60.0 °F /  15.6 °C 30.01in /  1016.1hPa Calm   1.0mph /  1.6km/h 51% 0.00in /  0mm
18:30 79.6 °F /  26.4 °C 59.4 °F /  15.2 °C 30.01in /  1016.1hPa Calm   1.0mph /  1.6km/h 50% 0.00in /  0mm
18:35 79.7 °F /  26.5 °C 60.0 °F /  15.6 °C 30.01in /  1016.1hPa Calm   4.0mph /  6.4km/h 51% 0.00in /  0mm
18:40 79.8 °F /  26.6 °C 60.6 °F /  15.9 °C 30.01in /  1016.1hPa Calm   4.0mph /  6.4km/h 52% 0.00in /  0mm
18:45 79.9 °F /  26.6 °C 60.2 °F /  15.7 °C 30.01in /  1016.1hPa Calm   1.0mph /  1.6km/h 51% 0.00in /  0mm
18:50 79.6 °F /  26.4 °C 59.9 °F /  15.5 °C 30.01in /  1016.1hPa Calm   1.0mph /  1.6km/h 51% 0.00in /  0mm
18:55 78.8 °F /  26 °C 59.2 °F /  15.1 °C 30.01in /  1016.1hPa Calm   1.0mph /  1.6km/h 51% 0.00in /  0mm
19:00 78.2 °F /  25.7 °C 61.7 °F /  16.5 °C 30.01in /  1016.1hPa Calm     57% 0.00in /  0mm
19:05 77.6 °F /  25.3 °C 60.2 °F /  15.7 °C 30.02in /  1016.5hPa Calm     55% 0.00in /  0mm
19:10 77.1 °F /  25.1 °C 62.2 °F /  16.8 °C 30.02in /  1016.5hPa Calm     60% 0.00in /  0mm
19:15 76.4 °F /  24.7 °C 59.6 °F /  15.3 °C 30.02in /  1016.5hPa Calm     56% 0.00in /  0mm
19:20 75.8 °F /  24.3 °C 60.9 °F /  16.1 °C 30.02in /  1016.5hPa Calm     60% 0.00in /  0mm
19:25 75.3 °F /  24.1 °C 60.9 °F /  16.1 °C 30.02in /  1016.5hPa Calm     61% 0.00in /  0mm
19:30 74.7 °F /  23.7 °C 60.8 °F /  16 °C 30.02in /  1016.5hPa Calm     62% 0.00in /  0mm
19:35 74.1 °F /  23.4 °C 60.7 °F /  15.9 °C 30.02in /  1016.5hPa Calm     63% 0.00in /  0mm
19:40 73.3 °F /  22.9 °C 60.4 °F /  15.8 °C 30.02in /  1016.5hPa Calm     64% 0.00in /  0mm
19:45 72.6 °F /  22.6 °C 60.6 °F /  15.9 °C 30.02in /  1016.5hPa Calm     66% 0.00in /  0mm
19:50 71.9 °F /  22.2 °C 60.4 °F /  15.8 °C 30.02in /  1016.5hPa Calm     67% 0.00in /  0mm
19:55 71.3 °F /  21.8 °C 60.2 °F /  15.7 °C 30.02in /  1016.5hPa Calm     68% 0.00in /  0mm
20:00 70.6 °F /  21.4 °C 59.9 °F /  15.5 °C 30.02in /  1016.5hPa Calm     69% 0.00in /  0mm
20:05 69.9 °F /  21.1 °C 60.1 °F /  15.6 °C 30.02in /  1016.5hPa Calm     71% 0.00in /  0mm
20:10 69.2 °F /  20.7 °C 60.2 °F /  15.7 °C 30.02in /  1016.5hPa Calm     73% 0.00in /  0mm
20:15 68.3 °F /  20.2 °C 59.3 °F /  15.2 °C 30.02in /  1016.5hPa Calm     73% 0.00in /  0mm
20:20 67.3 °F /  19.6 °C 58.4 °F /  14.7 °C 30.02in /  1016.5hPa Calm     73% 0.00in /  0mm
20:25 66.2 °F /  19 °C 57.7 °F /  14.3 °C 30.02in /  1016.5hPa Calm     74% 0.00in /  0mm
20:30 65.1 °F /  18.4 °C 56.6 °F /  13.7 °C 30.02in /  1016.5hPa Calm     74% 0.00in /  0mm
20:35 64.1 °F /  17.8 °C 56.0 °F /  13.3 °C 30.02in /  1016.5hPa Calm     75% 0.00in /  0mm
20:40 63.2 °F /  17.3 °C 55.5 °F /  13.1 °C 30.02in /  1016.5hPa Calm     76% 0.00in /  0mm
20:45 62.3 °F /  16.8 °C 55.0 °F /  12.8 °C 30.03in /  1016.8hPa Calm     77% 0.00in /  0mm
20:50 61.7 °F /  16.5 °C 54.8 °F /  12.7 °C 30.03in /  1016.8hPa Calm     78% 0.00in /  0mm
20:55 61.1 °F /  16.2 °C 54.5 °F /  12.5 °C 30.03in /  1016.8hPa Calm     79% 0.00in /  0mm
21:00 60.5 °F /  15.8 °C 54.0 °F /  12.2 °C 30.03in /  1016.8hPa Calm     79% 0.00in /  0mm
21:05 59.9 °F /  15.5 °C 53.4 °F /  11.9 °C 30.03in /  1016.8hPa Calm     79% 0.00in /  0mm
21:10 59.4 °F /  15.2 °C 53.2 °F /  11.8 °C 30.03in /  1016.8hPa Calm     80% 0.00in /  0mm
21:15 59.0 °F /  15 °C 52.8 °F /  11.6 °C 30.03in /  1016.8hPa Calm     80% 0.00in /  0mm
21:20 59.0 °F /  15 °C 53.5 °F /  11.9 °C 30.03in /  1016.8hPa Calm     82% 0.00in /  0mm
21:25 58.7 °F /  14.8 °C 53.2 °F /  11.8 °C 30.04in /  1017.2hPa Calm     82% 0.00in /  0mm
21:30 58.5 °F /  14.7 °C 53.4 °F /  11.9 °C 30.03in /  1016.8hPa Calm     83% 0.00in /  0mm
21:35 58.3 °F /  14.6 °C 53.2 °F /  11.8 °C 30.04in /  1017.2hPa Calm     83% 0.00in /  0mm
21:45 58.1 °F /  14.5 °C 53.0 °F /  11.7 °C 30.04in /  1017.2hPa Calm     83% 0.00in /  0mm
21:50 58.0 °F /  14.4 °C 53.2 °F /  11.8 °C 30.04in /  1017.2hPa Calm     84% 0.00in /  0mm
21:55 57.9 °F /  14.4 °C 53.1 °F /  11.7 °C 30.04in /  1017.2hPa Calm     84% 0.00in /  0mm
22:00 57.6 °F /  14.2 °C 52.5 °F /  11.4 °C 30.04in /  1017.2hPa Calm     83% 0.00in /  0mm
22:05 57.5 °F /  14.2 °C 52.4 °F /  11.3 °C 30.04in /  1017.2hPa Calm     83% 0.00in /  0mm
22:10 57.5 °F /  14.2 °C 52.7 °F /  11.5 °C 30.04in /  1017.2hPa Calm     84% 0.00in /  0mm
22:15 57.4 °F /  14.1 °C 52.6 °F /  11.4 °C 30.04in /  1017.2hPa Calm     84% 0.00in /  0mm
22:20 57.4 °F /  14.1 °C 52.6 °F /  11.4 °C 30.04in /  1017.2hPa Calm     84% 0.00in /  0mm
22:25 57.3 °F /  14.1 °C 52.5 °F /  11.4 °C 30.04in /  1017.2hPa Calm     84% 0.00in /  0mm
22:30 57.1 °F /  13.9 °C 52.0 °F /  11.1 °C 30.04in /  1017.2hPa Calm     83% 0.00in /  0mm
22:35 56.8 °F /  13.8 °C 51.7 °F /  10.9 °C 30.04in /  1017.2hPa Calm     83% 0.00in /  0mm
22:40 56.7 °F /  13.7 °C 51.6 °F /  10.9 °C 30.04in /  1017.2hPa Calm     83% 0.00in /  0mm
22:45 56.6 °F /  13.7 °C 51.8 °F /  11 °C 30.04in /  1017.2hPa Calm     84% 0.00in /  0mm
22:50 56.7 °F /  13.7 °C 52.2 °F /  11.2 °C 30.04in /  1017.2hPa Calm     85% 0.00in /  0mm
22:55 56.6 °F /  13.7 °C 52.1 °F /  11.2 °C 30.04in /  1017.2hPa Calm     85% 0.00in /  0mm
23:00 56.5 °F /  13.6 °C 52.0 °F /  11.1 °C 30.04in /  1017.2hPa Calm     85% 0.00in /  0mm
23:05 56.4 °F /  13.6 °C 52.0 °F /  11.1 °C 30.04in /  1017.2hPa Calm     85% 0.00in /  0mm
23:10 56.2 °F /  13.4 °C 51.8 °F /  11 °C 30.04in /  1017.2hPa Calm     85% 0.00in /  0mm
23:15 56.1 °F /  13.4 °C 51.7 °F /  10.9 °C 30.04in /  1017.2hPa Calm     85% 0.00in /  0mm
23:20 56.3 °F /  13.5 °C 51.9 °F /  11.1 °C 30.04in /  1017.2hPa Calm     85% 0.00in /  0mm
23:25 56.4 °F /  13.6 °C 52.0 °F /  11.1 °C 30.04in /  1017.2hPa Calm     85% 0.00in /  0mm
23:30 56.4 °F /  13.6 °C 52.0 °F /  11.1 °C 30.04in /  1017.2hPa Calm     85% 0.00in /  0mm
23:35 56.3 °F /  13.5 °C 51.9 °F /  11.1 °C 30.04in /  1017.2hPa Calm     85% 0.00in /  0mm
23:40 56.3 °F /  13.5 °C 51.9 °F /  11.1 °C 30.04in /  1017.2hPa Calm     85% 0.00in /  0mm
23:45 56.2 °F /  13.4 °C 52.1 °F /  11.2 °C 30.05in /  1017.5hPa Calm     86% 0.00in /  0mm
23:50 56.2 °F /  13.4 °C 52.4 °F /  11.3 °C 30.05in /  1017.5hPa Calm     87% 0.00in /  0mm
23:55 56.1 °F /  13.4 °C 52.3 °F /  11.3 °C 30.05in /  1017.5hPa Calm     87% 0.00in /  0mm
Westford Weather
Compliments of Weather Underground

 
 
Current Radar Loop:

Copyright © WestfordWeather.net 2007-2014. All rights reserved.